Ten Mile, TN

2:22 PM EDT on October 20, 2014 (GMT -0400)
Watts Bar Lake | Change Station
CLOSE
Current Station
Personal Weather Station
Location: Ten Mile, TN
Elevation: 767 ft
Nearby Weather Stations

Elev 767 ft 35.69 °N, 84.70 °W | Updated 27 seconds ago

Overcast
Overcast
66.7 °F
Feels Like 66.7 °F
N
0.0
Wind Variable Wind from SSW
Gusts 4.0 mph

Today
High -- | Low -- °F
--% Chance of Precip.
Yesterday
High -- | Low -- °F
Precip. -- in
7:49 AM 6:56 PM
Waning Crescent, 10% visible
Pressure 30.05 in
Visibility 10.0 miles
Clouds Few 4400 ft
Dew Point 56 °F
Humidity 67%
Rainfall 0.00 in
Snow Depth Not available.
UV 5 out of 12
Pollen 1.60 out of 12
Ozone Good
PM2.5 Good
Flu Activity Sporadic
METAR KMMI 201815Z AUTO 23008KT 10SM FEW044 20/09 A3005 RMK

More Conditions Fewer Conditions

Pressure 30.05 in
Visibility 10.0 miles
Clouds Few 4400 ft
Dew Point 56 °F
Humidity 67%
Rainfall 0.00 in
Snow Depth Not available.
UV 5 out of 12
Pollen 1.60 out of 12
Ozone Good
PM2.5 Good
Flu Activity Sporadic
METAR KMMI 201815Z AUTO 23008KT 10SM FEW044 20/09 A3005 RMK

More Conditions Fewer Conditions

10-Day Weather Forecast

Almanac

Astronomy

Oct. 20, 2014 Rise Set
Actual Time 7:49 AM EDT 6:56 PM EDT
Civil Twilight 7:23 AM EDT 7:22 PM EDT
Nautical Twilight 6:54 AM EDT 7:52 PM EDT
Astronomical Twilight 6:24 AM EDT 8:22 PM EDT
Moon 4:43 AM EDT 5:13 PM EDT
Length of Visible Light 11h 58m
Length of Day
11h 07m
Waning Crescent, 10% of the Moon is Illuminated
Today
Waning Crescent
Oct 23
New
Oct 30
First Quarter
Nov 6
Full
Nov 14
Last Quarter

Today's Extremes

State Highs State Lows

Community

WunderPhotos

Upload Photos

1,763,456 photos uploaded!

Nearby

Air Quality

  Air Quality AQ Index Pollutant
Yesterday Good
OZONE
Yesterday Good
PM2.5
Current Good
PM2.5
Current Good
OZONE
Monday Good
PM2.5
Monday Good
OZONE
Tuesday Good
PM2.5
Tuesday Good
OZONE

Snow Depth

Station Depth Elevation
No new snow has been reported.

Earthquake Activity

City Distance Mag. Time & Date
No recent earthquake activity has been reported nearby.
Minimum magnitude displayed is 2.5.

Coastal Water Temperatures

Place Temperature
No Stations Reporting

Nearby Weather Stations